Time;durP1;ratioP1;P1;durP2;ratioP2;P2;SDS_P1;SDS_P2;PMS_P1;PMS_P2;Temp;Humidity;BMP_temperature;BMP_pressure;BME280_temperature;BME280_humidity;BME280_pressure;Samples;Min_cycle;Max_cycle;Signal;HPM_P1;HPM_P2
2022/10/24 00:01:27;;;;;;;13.37;12.27;;;;;;;20.59;42.41;95780.56;6168394;28;103379;-84
2022/10/24 00:04:31;;;;;;;14.03;12.83;;;;;;;20.58;42.37;95771.00;6160767;28;103393;-82
2022/10/24 00:07:34;;;;;;;13.90;12.60;;;;;;;20.57;42.25;95764.09;6168010;28;105471;-83
2022/10/24 00:10:37;;;;;;;13.20;12.10;;;;;;;20.58;42.24;95769.16;6168993;28;103291;-83
2022/10/24 00:13:41;;;;;;;13.60;12.40;;;;;;;20.54;42.20;95765.47;6168766;28;103418;-82
2022/10/24 00:16:46;;;;;;;13.43;12.23;;;;;;;20.55;42.48;95774.22;6159395;28;103963;-83
2022/10/24 00:19:49;;;;;;;14.20;13.00;;;;;;;20.55;42.35;95767.03;6168094;28;103409;-83
2022/10/24 00:22:52;;;;;;;14.37;13.10;;;;;;;20.54;42.56;95760.16;6167652;28;102713;-80
2022/10/24 00:26:00;;;;;;;13.60;12.40;;;;;;;20.55;42.26;95771.56;6167850;28;104278;-83
2022/10/24 00:29:05;;;;;;;13.97;12.63;;;;;;;20.55;42.54;95764.38;6162523;28;102854;-83
2022/10/24 00:32:10;;;;;;;12.87;11.77;;;;;;;20.52;42.66;95758.84;6167981;28;104474;-82
2022/10/24 00:35:13;;;;;;;14.37;13.07;;;;;;;20.55;42.45;95763.59;6166455;28;103343;-81
2022/10/24 00:38:16;;;;;;;12.70;11.60;;;;;;;20.53;42.54;95761.22;6164426;28;104346;-83
2022/10/24 00:41:22;;;;;;;12.90;11.90;;;;;;;20.54;42.64;95762.00;6165323;28;103258;-86
2022/10/24 00:44:28;;;;;;;13.40;12.30;;;;;;;20.52;42.54;95756.19;6168897;28;103520;-85
2022/10/24 00:47:32;;;;;;;12.43;11.33;;;;;;;20.53;42.43;95761.22;6169330;28;103672;-87
2022/10/24 00:50:36;;;;;;;12.90;11.70;;;;;;;20.53;42.40;95755.91;6146224;28;104414;-84
2022/10/24 00:53:45;;;;;;;12.87;11.77;;;;;;;20.51;42.38;95760.72;6169372;28;103471;-85
2022/10/24 00:56:59;;;;;;;12.83;11.73;;;;;;;20.52;42.46;95758.84;6169609;28;104009;-84
2022/10/24 01:00:07;;;;;;;13.47;12.37;;;;;;;20.51;42.37;95763.38;6168332;28;103321;-85
2022/10/24 01:03:12;;;;;;;13.67;12.47;;;;;;;20.49;42.31;95765.47;6160642;28;103536;-85
2022/10/24 01:06:36;;;;;;;12.50;11.40;;;;;;;20.49;42.45;95767.34;6167553;28;103483;-86
2022/10/24 01:09:54;;;;;;;12.27;11.13;;;;;;;20.50;42.32;95768.94;6167475;28;104088;-84
2022/10/24 01:13:09;;;;;;;11.63;10.63;;;;;;;20.47;42.58;95759.66;6161098;28;103096;-83
2022/10/24 01:16:17;;;;;;;12.13;11.13;;;;;;;20.48;42.35;95769.22;6165929;28;103464;-83
2022/10/24 01:19:50;;;;;;;12.50;11.40;;;;;;;20.47;42.33;95761.50;6165448;28;104316;-84
2022/10/24 01:23:27;;;;;;;11.57;10.57;;;;;;;20.48;42.45;95765.75;6168101;28;104168;-85
2022/10/24 01:27:03;;;;;;;11.20;10.30;;;;;;;20.47;42.34;95764.16;6138000;28;103027;-83
2022/10/24 01:30:09;;;;;;;11.50;10.50;;;;;;;20.47;42.18;95764.97;6146923;28;104422;-79
2022/10/24 01:33:20;;;;;;;11.50;10.50;;;;;;;20.46;42.21;95767.91;6166150;28;106209;-79
2022/10/24 01:36:33;;;;;;;10.83;9.93;;;;;;;20.45;42.37;95759.13;6157934;28;102787;-80
2022/10/24 01:39:42;;;;;;;11.63;10.67;;;;;;;20.44;42.39;95756.75;6165308;28;103107;-79
2022/10/24 01:42:47;;;;;;;11.47;10.47;;;;;;;20.44;42.30;95767.38;6166057;28;103694;-81
2022/10/24 01:45:58;;;;;;;11.87;10.80;;;;;;;20.42;42.39;95764.22;6164964;28;103010;-80
2022/10/24 01:49:08;;;;;;;11.50;10.57;;;;;;;20.41;42.34;95760.75;6136034;28;107192;-81
2022/10/24 01:52:14;;;;;;;11.10;10.20;;;;;;;20.40;42.30;95750.41;6158466;28;103328;-80
2022/10/24 01:55:18;;;;;;;11.80;10.70;;;;;;;20.43;42.37;95760.50;6165801;28;103737;-80
2022/10/24 01:58:21;;;;;;;11.13;10.10;;;;;;;20.42;42.26;95765.00;6158382;28;102911;-81
2022/10/24 02:01:27;;;;;;;10.13;9.23;;;;;;;20.40;42.21;95756.53;6164396;28;104145;-81
2022/10/24 02:04:33;;;;;;;11.17;10.13;;;;;;;20.42;42.46;95761.56;6165161;28;106418;-81
2022/10/24 02:07:39;;;;;;;11.33;10.40;;;;;;;20.39;42.15;95748.81;6164796;28;103258;-81
2022/10/24 02:10:48;;;;;;;10.40;9.60;;;;;;;20.38;42.34;95756.00;6157505;28;103078;-81
2022/10/24 02:13:56;;;;;;;10.80;9.90;;;;;;;20.41;42.16;95757.31;6165648;28;104327;-80
2022/10/24 02:17:01;;;;;;;10.37;9.47;;;;;;;20.40;42.15;95753.06;6165029;28;103236;-81
2022/10/24 02:20:05;;;;;;;10.30;9.40;;;;;;;20.38;42.30;95763.19;6153916;28;103317;-82
2022/10/24 02:23:18;;;;;;;9.90;8.90;;;;;;;20.38;42.35;95760.53;6157708;28;103358;-81
2022/10/24 02:26:29;;;;;;;10.00;9.20;;;;;;;20.37;42.28;95756.28;6164499;28;103520;-82
2022/10/24 02:29:36;;;;;;;10.93;10.00;;;;;;;20.38;42.27;95757.88;6164957;28;103695;-81
2022/10/24 02:32:44;;;;;;;9.40;8.47;;;;;;;20.36;42.47;95757.34;6159105;28;106538;-80
2022/10/24 02:35:51;;;;;;;9.47;8.70;;;;;;;20.37;42.49;95757.09;6164700;28;103607;-80
2022/10/24 02:38:56;;;;;;;9.23;8.43;;;;;;;20.35;42.18;95748.59;6163938;28;103419;-80
2022/10/24 02:42:00;;;;;;;9.53;8.73;;;;;;;20.35;42.35;95753.13;6164771;28;105452;-81
2022/10/24 02:45:06;;;;;;;9.50;8.70;;;;;;;20.37;42.09;95750.97;6150665;28;103486;-80
2022/10/24 02:48:15;;;;;;;9.30;8.53;;;;;;;20.36;42.55;95752.03;6163523;28;102796;-80
2022/10/24 02:51:21;;;;;;;9.60;8.70;;;;;;;20.34;42.36;95754.19;6164133;28;103540;-81
2022/10/24 02:54:24;;;;;;;8.70;8.00;;;;;;;20.35;42.30;95758.44;6163309;28;103451;-80
2022/10/24 02:57:27;;;;;;;9.47;8.70;;;;;;;20.34;42.38;95752.31;6157612;28;103384;-80
2022/10/24 03:00:33;;;;;;;9.53;8.73;;;;;;;20.35;42.26;95755.78;6163753;28;103327;-80
2022/10/24 03:03:38;;;;;;;9.17;8.40;;;;;;;20.32;42.21;95755.22;6164871;28;105559;-84
2022/10/24 03:06:44;;;;;;;8.90;8.10;;;;;;;20.32;42.54;95763.22;6161639;28;105011;-80
2022/10/24 03:09:47;;;;;;;8.37;7.67;;;;;;;20.28;42.94;95746.22;6161007;28;104304;-82
2022/10/24 03:12:50;;;;;;;8.77;7.97;;;;;;;20.34;42.79;95754.19;6163858;28;103072;-80
2022/10/24 03:15:55;;;;;;;8.00;7.30;;;;;;;20.35;43.44;95753.13;6164514;28;103244;-82
2022/10/24 03:18:59;;;;;;;11.83;10.20;;;;;;;20.37;43.17;95745.66;6158739;28;103532;-82
2022/10/24 03:22:02;;;;;;;27.90;25.17;;;;;;;20.24;42.07;95747.03;6153150;28;103465;-83
2022/10/24 03:25:10;;;;;;;31.40;28.30;;;;;;;20.26;42.22;95751.03;6165095;28;105192;-82
2022/10/24 03:28:13;;;;;;;39.87;36.27;;;;;;;20.24;41.77;95747.84;6165132;28;103269;-81
2022/10/24 03:31:17;;;;;;;35.57;32.00;;;;;;;20.23;41.81;95746.25;6159870;28;105093;-83
2022/10/24 03:34:21;;;;;;;26.70;24.10;;;;;;;20.22;41.80;95755.28;6164591;28;103216;-81
2022/10/24 03:37:25;;;;;;;19.27;17.47;;;;;;;20.17;41.58;95744.69;6146463;28;102524;-81
2022/10/24 03:40:28;;;;;;;17.27;15.77;;;;;;;20.21;41.39;95752.91;6140875;28;103578;-82
2022/10/24 03:43:32;;;;;;;16.03;14.53;;;;;;;20.20;41.45;95752.13;6132497;28;104203;-80
2022/10/24 03:46:36;;;;;;;17.50;15.27;;;;;;;20.18;41.38;95754.25;6164036;28;103024;-81
2022/10/24 03:49:40;;;;;;;17.47;15.50;;;;;;;20.14;41.42;95747.88;6158417;28;103035;-81
2022/10/24 03:52:44;;;;;;;19.80;17.77;;;;;;;20.15;41.22;95749.47;6159179;28;103587;-80
2022/10/24 03:55:47;;;;;;;15.27;13.87;;;;;;;20.13;41.52;95754.25;6161612;28;106420;-81
2022/10/24 03:58:53;;;;;;;13.40;11.87;;;;;;;20.10;40.97;95756.69;6163282;28;103029;-79
2022/10/24 04:02:00;;;;;;;17.03;15.53;;;;;;;20.11;41.00;95748.44;6168267;28;106285;-81
2022/10/24 04:05:09;;;;;;;35.37;32.03;;;;;;;20.10;41.06;95746.84;6143634;28;102966;-81
2022/10/24 04:08:12;;;;;;;24.70;22.40;;;;;;;20.16;42.80;95745.75;6144601;28;102642;-79
2022/10/24 04:11:15;;;;;;;19.80;17.83;;;;;;;20.18;42.61;95745.50;6144524;28;103022;-81
2022/10/24 04:14:18;;;;;;;19.83;17.73;;;;;;;20.17;42.13;95744.69;6162722;28;103429;-81
2022/10/24 04:17:23;;;;;;;18.23;16.30;;;;;;;20.30;42.22;95745.94;6156558;28;103268;-81
2022/10/24 04:20:28;;;;;;;15.37;13.87;;;;;;;20.27;42.29;95744.66;6166025;28;103096;-80
2022/10/24 04:23:34;;;;;;;14.20;11.80;;;;;;;20.09;41.52;95733.84;6167641;28;103761;-83
2022/10/24 04:26:37;;;;;;;12.47;11.13;;;;;;;20.02;41.50;95740.28;6166685;28;104086;-82
2022/10/24 04:29:40;;;;;;;13.33;9.97;;;;;;;19.99;41.29;95740.78;6161079;28;103911;-82
2022/10/24 04:32:44;;;;;;;13.03;9.90;;;;;;;20.00;41.19;95744.28;6168811;28;103015;-81
2022/10/24 04:35:54;;;;;;;11.03;9.77;;;;;;;20.00;41.23;95746.94;6172044;28;103071;-81
2022/10/24 04:39:03;;;;;;;9.30;8.43;;;;;;;19.96;41.22;95745.88;6169371;28;104254;-81
2022/10/24 04:42:06;;;;;;;10.77;8.10;;;;;;;19.89;41.20;95729.44;6171408;28;103719;-80
2022/10/24 04:45:11;;;;;;;10.70;8.90;;;;;;;19.92;41.25;95752.81;6172287;28;103326;-81
2022/10/24 04:48:17;;;;;;;10.60;9.20;;;;;;;19.85;41.44;95757.63;6172357;28;105477;-81
2022/10/24 04:51:22;;;;;;;11.37;10.27;;;;;;;19.82;41.59;95756.28;6161845;28;103676;-83
2022/10/24 04:54:26;;;;;;;10.50;9.40;;;;;;;19.73;41.34;95756.09;6173938;28;103129;-85
2022/10/24 04:57:29;;;;;;;17.03;15.37;;;;;;;19.78;41.10;95765.88;6167986;28;103688;-86
2022/10/24 05:00:33;;;;;;;27.77;25.07;;;;;;;19.71;41.11;95763.53;6168957;28;103194;-84
2022/10/24 05:03:37;;;;;;;29.70;27.00;;;;;;;19.69;41.27;95760.34;6161900;28;104502;-86
2022/10/24 05:06:42;;;;;;;20.23;18.50;;;;;;;19.71;41.20;95763.53;6167199;28;106113;-86
2022/10/24 05:09:47;;;;;;;15.90;14.30;;;;;;;19.68;41.42;95763.28;6169785;28;102890;-85
2022/10/24 05:12:50;;;;;;;14.40;13.10;;;;;;;19.67;41.21;95753.72;6164702;28;103545;-85
2022/10/24 05:15:54;;;;;;;14.07;12.23;;;;;;;19.67;41.41;95762.50;6165793;28;102679;-86
2022/10/24 05:18:57;;;;;;;15.27;12.37;;;;;;;19.67;41.25;95765.16;6168863;28;106437;-85
2022/10/24 05:22:02;;;;;;;14.63;11.63;;;;;;;19.68;41.42;95764.09;6168371;28;105437;-86
2022/10/24 05:25:10;;;;;;;12.93;11.00;;;;;;;19.69;41.13;95770.19;6162959;28;104241;-85
2022/10/24 05:28:13;;;;;;;11.20;9.67;;;;;;;19.69;41.39;95770.97;6167143;28;103982;-85
2022/10/24 05:31:16;;;;;;;10.77;9.67;;;;;;;19.71;41.50;95774.16;6168160;28;103029;-85
2022/10/24 05:34:20;;;;;;;13.07;9.53;;;;;;;19.70;41.27;95774.44;6168250;28;106315;-86
2022/10/24 05:37:24;;;;;;;12.17;9.20;;;;;;;19.69;41.07;95765.66;6161393;28;103641;-84
2022/10/24 05:40:27;;;;;;;25.00;22.30;;;;;;;19.70;41.41;95767.25;6167928;28;102995;-86
2022/10/24 05:43:31;;;;;;;41.10;37.27;;;;;;;19.73;41.45;95769.38;6168741;28;102482;-91
2022/10/24 05:46:34;;;;;;;35.03;31.30;;;;;;;19.73;41.51;95769.38;6165521;28;103467;-85
2022/10/24 05:49:37;;;;;;;31.87;28.77;;;;;;;19.74;41.71;95770.16;6164169;28;103376;-85
2022/10/24 05:52:42;;;;;;;28.97;25.97;;;;;;;19.79;41.65;95774.63;6168548;28;104096;-87
2022/10/24 05:55:49;;;;;;;26.27;23.33;;;;;;;19.84;41.53;95769.31;6168379;28;104104;-88
2022/10/24 05:58:52;;;;;;;31.20;23.20;;;;;;;19.84;41.51;95783.41;6160221;28;102783;-85
2022/10/24 06:01:55;;;;;;;29.10;21.63;;;;;;;19.88;41.59;95781.78;6167683;28;102975;-85
2022/10/24 06:04:58;;;;;;;27.83;18.60;;;;;;;19.89;41.53;95779.91;6167956;28;106553;-86
2022/10/24 06:08:03;;;;;;;30.77;17.80;;;;;;;19.94;41.78;95796.63;6167595;28;107471;-85
2022/10/24 06:11:09;;;;;;;30.37;16.10;;;;;;;19.96;41.73;95793.69;6161380;28;102723;-87
2022/10/24 06:14:12;;;;;;;22.80;14.10;;;;;;;20.12;41.72;95805.81;6168683;28;104511;-80
2022/10/24 06:17:15;;;;;;;20.03;13.50;;;;;;;20.13;41.80;95796.00;6166819;28;104973;-85
2022/10/24 06:20:21;;;;;;;25.90;14.00;;;;;;;20.32;41.29;95802.28;6167079;28;103608;-88
2022/10/24 06:23:25;;;;;;;18.63;13.07;;;;;;;20.44;41.45;95802.75;6163033;28;103650;-89
2022/10/24 06:26:28;;;;;;;14.10;12.73;;;;;;;20.53;41.21;95802.97;6167498;28;103416;-86
2022/10/24 06:29:32;;;;;;;20.17;11.87;;;;;;;20.59;40.84;95799.19;6166692;28;103517;-86
2022/10/24 06:32:36;;;;;;;20.40;12.30;;;;;;;20.64;40.70;95801.81;6161461;28;102748;-86
2022/10/24 06:35:46;;;;;;;17.53;12.33;;;;;;;20.67;40.73;95811.09;6166266;28;105110;-85
2022/10/24 06:38:51;;;;;;;16.23;12.57;;;;;;;20.74;40.75;95809.72;6166855;28;103663;-85
2022/10/24 06:41:54;;;;;;;13.87;10.50;;;;;;;20.83;41.42;95805.38;6165705;28;103640;-83
2022/10/24 06:44:57;;;;;;;14.20;10.53;;;;;;;20.92;41.47;95810.91;6158842;28;103570;-83
2022/10/24 06:48:05;;;;;;;11.10;9.60;;;;;;;20.92;41.71;95809.03;6165158;28;103297;-83
2022/10/24 06:51:08;;;;;;;12.77;9.63;;;;;;;21.02;41.00;95820.69;6168088;28;104794;-94
2022/10/24 06:54:13;;;;;;;12.60;9.50;;;;;;;21.08;40.60;95828.34;6170422;28;103402;-84
2022/10/24 06:57:16;;;;;;;11.87;9.00;;;;;;;21.13;40.60;95822.19;6160828;28;103384;-86
2022/10/24 07:00:19;;;;;;;15.10;10.00;;;;;;;21.18;40.94;95830.16;6165707;28;103274;-79
2022/10/24 07:03:23;;;;;;;17.30;10.30;;;;;;;21.25;40.78;95821.81;6164918;28;103515;-81
2022/10/24 07:06:28;;;;;;;10.50;9.20;;;;;;;21.32;40.26;95823.06;6160885;28;103909;-80
2022/10/24 07:09:33;;;;;;;11.97;9.40;;;;;;;21.35;40.34;95825.19;6162775;28;103972;-82
2022/10/24 07:12:36;;;;;;;12.13;9.93;;;;;;;21.37;40.48;95817.72;6164428;28;103744;-81
2022/10/24 07:15:39;;;;;;;14.20;10.30;;;;;;;21.40;40.55;95821.66;6164629;28;104161;-82
2022/10/24 07:18:44;;;;;;;13.60;10.10;;;;;;;21.44;40.01;95828.00;6158138;28;105088;-81
2022/10/24 07:21:47;;;;;;;12.17;9.57;;;;;;;21.46;40.54;95821.34;6165285;28;106202;-83
2022/10/24 07:24:54;;;;;;;14.00;9.30;;;;;;;21.51;40.11;95817.84;6164783;28;103700;-82
2022/10/24 07:27:58;;;;;;;10.07;9.07;;;;;;;21.54;40.18;95811.94;6164393;28;103766;-82
2022/10/24 07:31:02;;;;;;;12.67;10.90;;;;;;;21.59;40.13;95814.53;6156985;28;103513;-81
2022/10/24 07:34:07;;;;;;;12.67;11.37;;;;;;;21.61;39.87;95815.06;6164972;28;103981;-82
2022/10/24 07:37:10;;;;;;;15.03;11.23;;;;;;;21.63;39.85;95812.09;6168797;28;106583;-82
2022/10/24 07:40:16;;;;;;;11.63;10.43;;;;;;;21.67;39.86;95813.13;6165264;28;107606;-80
2022/10/24 07:43:20;;;;;;;14.40;10.70;;;;;;;21.72;40.00;95802.41;6164948;28;103680;-80
2022/10/24 07:46:24;;;;;;;11.27;10.10;;;;;;;21.71;40.18;95806.97;6167981;28;103422;-81
2022/10/24 07:49:27;;;;;;;14.80;10.50;;;;;;;21.68;39.85;95796.88;6168145;28;103676;-80
2022/10/24 07:52:35;;;;;;;13.80;10.00;;;;;;;21.79;40.11;95810.84;6161793;28;103201;-81
2022/10/24 07:55:41;;;;;;;13.47;10.43;;;;;;;21.81;39.91;95816.69;6168132;28;103346;-82
2022/10/24 07:58:48;;;;;;;10.27;9.27;;;;;;;21.85;40.43;95815.09;6168355;28;104590;-84
2022/10/24 08:01:51;;;;;;;12.80;9.30;;;;;;;21.88;40.33;95803.06;6167232;28;103460;-82
2022/10/24 08:04:54;;;;;;;13.60;8.77;;;;;;;21.87;40.29;95804.94;6162760;28;103199;-81
2022/10/24 08:07:57;;;;;;;10.20;8.57;;;;;;;21.92;40.45;95812.06;6167543;28;103583;-81
2022/10/24 08:11:27;;;;;;;10.27;8.90;;;;;;;21.93;40.61;95809.13;6167552;28;102692;-81
2022/10/24 08:14:30;;;;;;;16.00;9.20;;;;;;;21.95;40.38;95801.63;6164549;28;103049;-81
2022/10/24 08:17:35;;;;;;;15.17;10.77;;;;;;;21.96;40.24;95797.88;6164606;28;103244;-82
2022/10/24 08:20:39;;;;;;;17.10;11.50;;;;;;;21.97;40.61;95801.34;6172595;28;104313;-83
2022/10/24 08:23:44;;;;;;;16.20;10.80;;;;;;;21.97;40.27;95799.47;6172383;28;103203;-82
2022/10/24 08:26:49;;;;;;;14.97;10.57;;;;;;;21.98;40.18;95798.38;6161936;28;103318;-83
2022/10/24 08:29:52;;;;;;;10.77;9.67;;;;;;;21.98;40.58;95787.72;6167706;28;103400;-83
2022/10/24 08:32:55;;;;;;;11.33;10.17;;;;;;;22.00;40.41;95793.56;6168282;28;102967;-84
2022/10/24 08:36:02;;;;;;;13.13;9.80;;;;;;;21.91;40.53;95776.63;6168248;28;102769;-84
2022/10/24 08:39:05;;;;;;;13.43;9.90;;;;;;;22.03;40.21;95798.34;6161704;28;103484;-83
2022/10/24 08:42:15;;;;;;;9.83;8.83;;;;;;;22.03;40.25;95787.69;6167519;28;103383;-89
2022/10/24 08:45:26;;;;;;;11.30;9.23;;;;;;;22.00;40.34;95772.22;6169088;28;106089;-83
2022/10/24 08:48:34;;;;;;;14.53;9.33;;;;;;;22.03;40.46;95779.69;6163498;28;103314;-83
2022/10/24 08:51:44;;;;;;;12.33;8.07;;;;;;;22.02;40.43;95770.09;6164447;28;103306;-84
2022/10/24 08:54:47;;;;;;;9.87;7.60;;;;;;;22.02;40.27;95774.63;6168583;28;102648;-85
2022/10/24 08:57:55;;;;;;;14.13;8.63;;;;;;;22.01;40.46;95765.84;6168086;28;106232;-84
2022/10/24 09:01:05;;;;;;;11.70;8.77;;;;;;;22.01;40.85;95762.38;6159899;28;103761;-84
2022/10/24 09:04:13;;;;;;;9.37;8.37;;;;;;;22.00;40.82;95764.25;6167326;28;102788;-85
2022/10/24 09:07:19;;;;;;;12.93;8.50;;;;;;;21.99;40.43;95749.34;6167635;28;103658;-83
2022/10/24 09:10:31;;;;;;;9.63;8.73;;;;;;;22.00;40.80;95755.44;6167901;28;103080;-83
2022/10/24 09:13:38;;;;;;;10.10;9.10;;;;;;;21.99;40.68;95753.88;6159895;28;103011;-83
2022/10/24 09:16:44;;;;;;;8.63;7.57;;;;;;;22.00;41.11;95750.13;6168193;28;103163;-83
2022/10/24 09:19:52;;;;;;;8.90;7.60;;;;;;;21.99;40.98;95745.88;6168150;28;106461;-84
2022/10/24 09:23:00;;;;;;;12.00;8.43;;;;;;;22.04;40.89;95745.81;6161650;28;103458;-83
2022/10/24 09:26:07;;;;;;;10.93;8.13;;;;;;;22.05;40.48;95748.19;6166777;28;103553;-84
2022/10/24 09:29:12;;;;;;;8.33;7.23;;;;;;;22.01;40.48;95731.22;6166855;28;102888;-84
2022/10/24 09:32:19;;;;;;;10.77;8.03;;;;;;;22.01;41.01;95730.38;6168168;28;106974;-82
2022/10/24 09:35:24;;;;;;;7.90;7.20;;;;;;;22.06;40.74;95733.00;6159430;28;103614;-84
2022/10/24 09:38:32;;;;;;;7.80;7.07;;;;;;;22.05;40.96;95732.22;6167551;28;105555;-83
2022/10/24 09:41:36;;;;;;;7.80;7.00;;;;;;;22.09;40.96;95738.53;6168038;28;102746;-83
2022/10/24 09:44:42;;;;;;;8.03;7.23;;;;;;;22.10;40.98;95739.34;6167436;28;103545;-84
2022/10/24 09:47:45;;;;;;;8.83;7.00;;;;;;;22.14;41.07;95726.22;6161864;28;103201;-84
2022/10/24 09:50:51;;;;;;;9.60;7.43;;;;;;;22.15;41.08;95730.47;6166571;28;103680;-84
2022/10/24 09:54:10;;;;;;;8.67;7.77;;;;;;;22.15;41.00;95720.59;6167578;28;103843;-83
2022/10/24 09:57:16;;;;;;;10.67;7.00;;;;;;;22.15;40.95;95725.91;6160934;28;102928;-83
2022/10/24 10:00:24;;;;;;;9.00;7.70;;;;;;;22.16;41.03;95724.06;6166656;28;103574;-82
2022/10/24 10:03:29;;;;;;;7.07;6.30;;;;;;;22.17;40.65;95728.28;6166594;28;104120;-83
2022/10/24 10:06:33;;;;;;;7.40;6.80;;;;;;;22.15;41.01;95720.59;6165461;28;103082;-84
2022/10/24 10:09:41;;;;;;;7.33;6.70;;;;;;;22.16;40.79;95716.84;6158691;28;103416;-83
2022/10/24 10:12:54;;;;;;;8.93;7.30;;;;;;;22.17;40.70;95709.63;6166181;28;103272;-84
2022/10/24 10:16:02;;;;;;;8.33;6.63;;;;;;;22.16;40.70;95703.50;6166415;28;103343;-83
2022/10/24 10:19:14;;;;;;;7.30;6.60;;;;;;;22.18;40.89;95703.22;6163667;28;103404;-82
2022/10/24 10:22:27;;;;;;;7.67;6.93;;;;;;;22.17;40.84;95701.63;6163015;28;103180;-83
2022/10/24 10:25:32;;;;;;;8.30;5.80;;;;;;;22.17;40.71;95698.97;6166557;28;105118;-82
2022/10/24 10:28:41;;;;;;;8.10;6.40;;;;;;;22.16;40.58;95692.84;6166823;28;102939;-80
2022/10/24 10:31:48;;;;;;;7.17;6.47;;;;;;;22.14;40.78;95692.34;6158996;28;103578;-83
2022/10/24 10:35:05;;;;;;;7.93;6.10;;;;;;;22.15;40.74;95687.81;6167477;28;103131;-84
2022/10/24 10:38:32;;;;;;;6.57;5.30;;;;;;;22.14;41.26;95683.56;6141215;28;102585;-81
2022/10/24 10:41:46;;;;;;;6.53;5.87;;;;;;;22.13;41.28;95680.09;6138988;28;103801;-81
2022/10/24 10:45:03;;;;;;;6.87;6.17;;;;;;;22.11;40.89;95668.94;6138263;28;103408;-82
2022/10/24 10:48:27;;;;;;;6.83;5.97;;;;;;;22.11;40.92;95669.75;6141804;28;105870;-83
2022/10/24 10:51:42;;;;;;;6.70;6.03;;;;;;;22.08;41.22;95665.00;6141005;28;102747;-83
2022/10/24 10:55:07;;;;;;;6.43;5.60;;;;;;;22.09;41.28;95657.78;6134432;28;102683;-81
2022/10/24 10:58:26;;;;;;;7.20;5.90;;;;;;;22.08;41.13;95659.66;6141599;28;103785;-83
2022/10/24 11:01:48;;;;;;;8.27;6.10;;;;;;;22.08;41.08;95656.19;6140532;28;102992;-81
2022/10/24 11:05:01;;;;;;;6.47;5.87;;;;;;;22.05;41.48;95646.91;6136185;28;103198;-82
2022/10/24 11:08:18;;;;;;;5.97;5.43;;;;;;;22.06;41.18;95643.19;6139196;28;103932;-83
2022/10/24 11:11:27;;;;;;;8.40;5.90;;;;;;;22.05;41.49;95640.81;6139358;28;105698;-81
2022/10/24 11:14:35;;;;;;;6.20;5.60;;;;;;;21.98;40.98;95632.38;6140256;28;103158;-89
2022/10/24 11:17:44;;;;;;;6.17;5.57;;;;;;;22.00;41.59;95638.97;6137159;28;103241;-88
2022/10/24 11:20:56;;;;;;;6.63;5.53;;;;;;;22.00;41.20;95633.66;6142322;28;103389;-84
2022/10/24 11:24:05;;;;;;;5.70;5.20;;;;;;;21.99;41.48;95631.28;6141631;28;106384;-85
2022/10/24 11:27:21;;;;;;;7.30;5.10;;;;;;;21.95;41.69;95623.09;6138777;28;103554;-84
2022/10/24 11:30:38;;;;;;;6.00;5.37;;;;;;;21.95;41.34;95625.75;6138449;28;103505;-83
2022/10/24 11:33:47;;;;;;;6.67;5.57;;;;;;;21.97;41.51;95620.91;6140855;28;103125;-83
2022/10/24 11:36:57;;;;;;;6.90;5.43;;;;;;;21.93;41.47;95617.25;6141077;28;103714;-83
2022/10/24 11:40:05;;;;;;;5.40;5.00;;;;;;;21.89;41.65;95610.94;6134973;28;102728;-84
2022/10/24 11:43:21;;;;;;;6.23;5.60;;;;;;;21.88;41.37;95603.22;6141428;28;103053;-81
2022/10/24 11:46:30;;;;;;;6.17;5.40;;;;;;;21.84;41.56;95603.00;6141842;28;103598;-83
2022/10/24 11:49:40;;;;;;;6.50;5.60;;;;;;;21.85;41.58;95598.50;6141918;28;103452;-82
2022/10/24 11:52:49;;;;;;;5.97;5.47;;;;;;;21.85;41.93;95601.16;6136546;28;103558;-84
2022/10/24 11:55:56;;;;;;;7.83;5.73;;;;;;;21.82;42.03;95589.16;6141757;28;103494;-85
2022/10/24 11:59:03;;;;;;;5.70;5.20;;;;;;;21.82;41.97;95589.16;6142029;28;102730;-86
2022/10/24 12:02:45;;;;;;;5.57;5.07;;;;;;;21.80;41.89;95578.78;6134807;28;103938;-85
2022/10/24 12:06:16;;;;;;;6.37;5.10;;;;;;;21.78;41.78;95569.50;6108820;28;103657;-84
2022/10/24 12:09:44;;;;;;;5.83;5.33;;;;;;;21.76;41.99;95572.47;6141789;28;102640;-85
2022/10/24 12:13:07;;;;;;;7.77;5.60;;;;;;;21.69;42.08;95555.28;6138865;28;105243;-84
2022/10/24 12:16:19;;;;;;;5.47;4.93;;;;;;;21.70;42.27;95562.19;6139573;28;103340;-85
2022/10/24 12:19:24;;;;;;;8.63;5.70;;;;;;;21.67;41.79;95549.41;6140881;28;104153;-84
2022/10/24 12:22:35;;;;;;;6.70;5.43;;;;;;;21.79;42.04;95557.75;6143433;28;104043;-85
2022/10/24 12:25:40;;;;;;;5.13;4.63;;;;;;;21.82;42.38;95546.53;6137916;28;103310;-84
2022/10/24 12:28:57;;;;;;;6.83;5.13;;;;;;;21.83;42.42;95560.66;6144298;28;103314;-86
2022/10/24 12:32:26;;;;;;;6.50;5.60;;;;;;;21.77;42.04;95560.72;6144860;28;103519;-83
2022/10/24 12:35:45;;;;;;;6.47;5.27;;;;;;;21.74;42.01;95547.19;6140558;28;105000;-84
2022/10/24 12:39:08;;;;;;;7.13;5.70;;;;;;;21.70;42.28;95547.00;6144016;28;104738;-84
2022/10/24 12:42:16;;;;;;;5.87;5.13;;;;;;;21.72;42.46;95544.81;6144104;28;104060;-83
2022/10/24 12:45:29;;;;;;;6.37;5.23;;;;;;;21.72;42.45;95547.50;6144131;28;103115;-85
2022/10/24 12:48:35;;;;;;;5.27;4.77;;;;;;;21.70;42.57;95546.19;6137588;28;106450;-85
2022/10/24 12:51:40;;;;;;;5.03;4.53;;;;;;;21.64;42.50;95534.03;6144244;28;103749;-85
2022/10/24 12:54:44;;;;;;;8.33;5.53;;;;;;;21.67;42.29;95536.09;6143964;28;103425;-86
2022/10/24 12:57:49;;;;;;;7.13;4.80;;;;;;;21.67;42.41;95534.22;6141142;28;103177;-84
2022/10/24 13:00:56;;;;;;;6.57;5.37;;;;;;;21.66;42.13;95532.66;6139599;28;103291;-83
2022/10/24 13:04:18;;;;;;;7.97;5.60;;;;;;;21.66;41.92;95534.53;6143747;28;103234;-86
2022/10/24 13:07:38;;;;;;;5.77;5.00;;;;;;;21.66;42.23;95529.97;6143140;28;103883;-86
2022/10/24 13:10:57;;;;;;;6.20;5.60;;;;;;;21.64;42.28;95524.16;6139609;28;103874;-85
2022/10/24 13:14:33;;;;;;;6.60;4.93;;;;;;;21.66;42.17;95521.19;6144312;28;103173;-86
2022/10/24 13:17:47;;;;;;;7.10;5.03;;;;;;;21.56;42.43;95510.72;6128822;28;103123;-85
2022/10/24 13:21:08;;;;;;;5.27;4.77;;;;;;;21.65;42.41;95530.28;6139422;28;103427;-84
2022/10/24 13:24:25;;;;;;;7.77;5.37;;;;;;;21.65;42.30;95530.28;6144479;28;106348;-85
2022/10/24 13:27:32;;;;;;;5.80;5.20;;;;;;;21.54;42.42;95510.22;6144098;28;104727;-86
2022/10/24 13:30:35;;;;;;;8.73;5.57;;;;;;;21.63;41.90;95529.78;6144302;28;104819;-86
2022/10/24 13:33:45;;;;;;;7.70;5.70;;;;;;;21.65;42.51;95520.41;6136657;28;103739;-84
2022/10/24 13:36:51;;;;;;;5.83;5.27;;;;;;;21.62;42.18;95521.00;6143678;28;104114;-85
2022/10/24 13:40:01;;;;;;;7.70;5.10;;;;;;;21.59;42.01;95516.25;6143608;28;102873;-84
2022/10/24 13:43:13;;;;;;;6.87;5.23;;;;;;;21.63;41.93;95516.47;6140476;28;102634;-83
2022/10/24 13:46:26;;;;;;;7.70;5.40;;;;;;;21.62;42.27;95525.53;6139670;28;102871;-84
2022/10/24 13:49:36;;;;;;;5.97;5.00;;;;;;;21.60;42.25;95522.38;6144004;28;103226;-85
2022/10/24 13:52:47;;;;;;;5.67;5.13;;;;;;;21.61;42.54;95513.31;6143025;28;104792;-85
2022/10/24 13:55:51;;;;;;;6.57;5.50;;;;;;;21.61;42.37;95513.31;6137354;28;103901;-87
2022/10/24 13:58:55;;;;;;;8.63;5.03;;;;;;;21.62;41.90;95513.00;6142989;28;103010;-85
2022/10/24 14:02:02;;;;;;;5.30;4.80;;;;;;;21.61;42.38;95518.63;6143189;28;103339;-85
2022/10/24 14:05:17;;;;;;;6.33;5.10;;;;;;;21.60;42.49;95511.72;6142479;28;102673;-84
2022/10/24 14:08:25;;;;;;;8.93;5.43;;;;;;;21.58;42.27;95505.91;6134352;28;102956;-84
2022/10/24 14:11:29;;;;;;;6.17;5.57;;;;;;;21.61;42.13;95507.97;6142405;28;103392;-87
2022/10/24 14:14:38;;;;;;;7.30;4.80;;;;;;;21.58;41.80;95500.56;6143654;28;104305;-85
2022/10/24 14:17:53;;;;;;;9.20;5.03;;;;;;;21.58;42.47;95498.69;6139197;28;103186;-81
2022/10/24 14:21:00;;;;;;;5.87;4.90;;;;;;;21.56;42.18;95497.41;6142917;28;103756;-88
2022/10/24 14:24:12;;;;;;;7.20;5.17;;;;;;;21.57;41.86;95502.44;6143920;28;103657;-86